createdAt,value
2022-10-01T00:02:20.841Z,11.93
2022-10-01T00:04:48.924Z,10.47
2022-10-01T00:07:17.542Z,11.70
2022-10-01T00:09:45.727Z,12.07
2022-10-01T00:12:16.733Z,13.30
2022-10-01T00:14:45.162Z,11.70
2022-10-01T00:17:14.614Z,11.37
2022-10-01T00:19:42.772Z,12.20
2022-10-01T00:22:10.862Z,10.93
2022-10-01T00:24:39.025Z,9.97
2022-10-01T00:27:07.326Z,10.03
2022-10-01T00:29:35.700Z,11.73
2022-10-01T00:32:03.959Z,9.17
2022-10-01T00:34:33.482Z,10.13
2022-10-01T00:37:01.603Z,10.33
2022-10-01T00:39:29.745Z,9.80
2022-10-01T00:41:57.918Z,9.37
2022-10-01T00:44:33.416Z,9.27
2022-10-01T00:47:10.596Z,8.93
2022-10-01T00:49:42.054Z,9.97
2022-10-01T00:52:14.743Z,7.67
2022-10-01T00:54:46.419Z,8.43
2022-10-01T00:57:18.185Z,8.03
2022-10-01T00:59:47.613Z,8.73
2022-10-01T01:02:15.802Z,7.63
2022-10-01T01:04:45.385Z,7.20
2022-10-01T01:07:13.874Z,7.83
2022-10-01T01:09:45.928Z,7.13
2022-10-01T01:12:24.887Z,7.50
2022-10-01T01:15:04.807Z,7.03
2022-10-01T01:17:40.358Z,6.33
2022-10-01T01:20:40.126Z,6.07
2022-10-01T01:23:25.393Z,5.93
2022-10-01T01:26:00.435Z,6.37
2022-10-01T01:28:33.763Z,8.53
2022-10-01T01:31:08.082Z,7.53
2022-10-01T01:33:38.049Z,7.80
2022-10-01T01:36:10.725Z,7.75
2022-10-01T01:38:44.401Z,8.40
2022-10-01T01:41:14.373Z,11.38
2022-10-01T01:43:46.722Z,10.60
2022-10-01T01:46:17.938Z,7.30
2022-10-01T01:48:49.249Z,8.38
2022-10-01T01:51:24.905Z,7.77
2022-10-01T01:53:53.217Z,8.67
2022-10-01T01:56:21.594Z,8.60
2022-10-01T01:58:52.954Z,8.00
2022-10-01T02:01:39.348Z,9.02
2022-10-01T02:04:11.839Z,7.20
2022-10-01T02:06:54.184Z,9.10
2022-10-01T02:09:30.141Z,8.20
2022-10-01T02:12:07.921Z,8.15
2022-10-01T02:14:49.087Z,9.75
2022-10-01T02:17:23.765Z,8.07
2022-10-01T02:19:58.666Z,8.90
2022-10-01T02:22:40.255Z,10.60
2022-10-01T02:25:12.017Z,8.60
2022-10-01T02:27:45.180Z,8.57
2022-10-01T02:30:15.303Z,8.80
2022-10-01T02:32:47.483Z,8.70
2022-10-01T02:35:17.805Z,8.90
2022-10-01T02:37:49.189Z,8.13
2022-10-01T02:40:22.410Z,10.23
2022-10-01T02:42:55.269Z,7.90
2022-10-01T02:45:27.619Z,9.50
2022-10-01T02:48:01.432Z,8.45
2022-10-01T02:50:36.582Z,7.90
2022-10-01T02:53:08.189Z,9.05
2022-10-01T02:55:39.035Z,8.63
2022-10-01T02:58:07.927Z,7.82
2022-10-01T03:00:37.394Z,7.47
2022-10-01T03:03:05.524Z,7.07
2022-10-01T03:05:33.694Z,6.93
2022-10-01T03:08:02.362Z,7.40
2022-10-01T03:10:30.563Z,6.68
2022-10-01T03:13:00.198Z,7.80
2022-10-01T03:15:29.289Z,10.00
2022-10-01T03:17:58.779Z,8.35
2022-10-01T03:20:26.902Z,8.93
2022-10-01T03:22:55.000Z,8.50
2022-10-01T03:25:23.114Z,8.32
2022-10-01T03:27:53.811Z,9.00
2022-10-01T03:30:22.222Z,8.23
2022-10-01T03:32:50.339Z,7.60
2022-10-01T03:35:20.381Z,7.20
2022-10-01T03:37:48.769Z,12.33
2022-10-01T03:40:17.150Z,7.13
2022-10-01T03:42:45.296Z,8.57
2022-10-01T03:45:13.481Z,8.10
2022-10-01T03:47:41.584Z,6.57
2022-10-01T03:50:10.864Z,6.20
2022-10-01T03:52:41.646Z,5.93
2022-10-01T03:55:10.356Z,6.17
2022-10-01T03:57:38.556Z,7.23
2022-10-01T04:00:07.434Z,6.00
2022-10-01T04:02:39.750Z,7.90
2022-10-01T04:05:08.958Z,8.57
2022-10-01T04:07:37.131Z,7.70
2022-10-01T04:10:07.912Z,7.27
2022-10-01T04:12:36.057Z,6.97
2022-10-01T04:15:04.329Z,7.63
2022-10-01T04:17:32.466Z,7.97
2022-10-01T04:20:00.561Z,8.57
2022-10-01T04:22:28.777Z,8.40
2022-10-01T04:24:56.906Z,8.98
2022-10-01T04:27:26.478Z,9.75
2022-10-01T04:29:54.577Z,9.38
2022-10-01T04:32:22.680Z,8.38
2022-10-01T04:34:53.705Z,8.90
2022-10-01T04:37:22.823Z,7.80
2022-10-01T04:39:51.167Z,9.05
2022-10-01T04:42:19.321Z,6.93
2022-10-01T04:44:48.886Z,7.97
2022-10-01T04:47:17.070Z,9.00
2022-10-01T04:49:45.159Z,11.50
2022-10-01T04:52:13.306Z,7.97
2022-10-01T04:54:41.426Z,10.50
2022-10-01T04:57:09.570Z,8.00
2022-10-01T04:59:37.668Z,8.93
2022-10-01T05:02:07.223Z,8.87
2022-10-01T05:04:35.387Z,9.38
2022-10-01T05:07:03.617Z,12.63
2022-10-01T05:09:31.716Z,11.05
2022-10-01T05:11:59.860Z,8.93
2022-10-01T05:14:27.994Z,9.63
2022-10-01T05:16:56.225Z,11.63
2022-10-01T05:19:28.992Z,11.63
2022-10-01T05:21:57.337Z,10.10
2022-10-01T05:24:26.145Z,10.87
2022-10-01T05:26:55.114Z,9.80
2022-10-01T05:29:23.465Z,10.70
2022-10-01T05:31:51.627Z,10.67
2022-10-01T05:34:19.906Z,10.23
2022-10-01T05:36:49.405Z,10.60
2022-10-01T05:39:17.490Z,13.40
2022-10-01T05:41:45.649Z,13.27
2022-10-01T05:44:13.814Z,11.67
2022-10-01T05:46:43.673Z,12.37
2022-10-01T05:49:11.778Z,11.00
2022-10-01T05:51:39.951Z,11.97
2022-10-01T05:54:09.589Z,11.87
2022-10-01T05:56:37.980Z,11.00
2022-10-01T05:59:07.039Z,10.63
2022-10-01T06:01:35.313Z,11.97
2022-10-01T06:04:03.818Z,11.40
2022-10-01T06:06:31.966Z,12.03
2022-10-01T06:09:00.526Z,10.20
2022-10-01T06:11:30.061Z,10.43
2022-10-01T06:13:58.210Z,11.37
2022-10-01T06:16:26.475Z,10.00
2022-10-01T06:18:57.577Z,10.73
2022-10-01T06:21:26.396Z,9.77
2022-10-01T06:23:55.392Z,13.40
2022-10-01T06:26:24.247Z,10.20
2022-10-01T06:28:53.943Z,10.83
2022-10-01T06:31:22.918Z,10.60
2022-10-01T06:33:51.062Z,12.20
2022-10-01T06:36:19.285Z,13.60
2022-10-01T06:38:49.591Z,14.07
2022-10-01T06:41:18.638Z,14.97
2022-10-01T06:43:46.792Z,14.53
2022-10-01T06:46:16.427Z,14.70
2022-10-01T06:48:44.721Z,14.80
2022-10-01T06:51:12.837Z,13.93
2022-10-01T06:53:41.192Z,14.43
2022-10-01T06:56:09.721Z,13.90
2022-10-01T06:58:38.505Z,14.07
2022-10-01T07:01:06.697Z,12.60
2022-10-01T07:03:36.436Z,12.33
2022-10-01T07:06:07.971Z,18.80
2022-10-01T07:08:36.193Z,12.53
2022-10-01T07:11:05.161Z,10.00
2022-10-01T07:13:33.752Z,10.10
2022-10-01T07:16:04.039Z,11.10
2022-10-01T07:18:32.247Z,12.27
2022-10-01T07:21:01.880Z,13.37
2022-10-01T07:23:30.093Z,11.93
2022-10-01T07:25:59.026Z,11.67
2022-10-01T07:28:28.229Z,12.83
2022-10-01T07:31:01.293Z,11.00
2022-10-01T07:33:29.610Z,12.10
2022-10-01T07:36:03.265Z,12.43
2022-10-01T07:38:33.364Z,11.53
2022-10-01T07:41:03.371Z,12.33
2022-10-01T07:43:32.092Z,12.10
2022-10-01T07:46:02.052Z,10.20
2022-10-01T07:48:31.094Z,10.87
2022-10-01T07:50:59.325Z,10.30
2022-10-01T07:53:28.803Z,9.10
2022-10-01T07:55:57.001Z,8.70
2022-10-01T07:58:25.080Z,9.80
2022-10-01T08:00:56.165Z,8.70
2022-10-01T08:03:24.633Z,10.33
2022-10-01T08:05:54.667Z,10.40
2022-10-01T08:08:22.825Z,10.60
2022-10-01T08:10:52.328Z,11.47
2022-10-01T08:13:24.774Z,8.30
2022-10-01T08:15:54.968Z,9.63
2022-10-01T08:18:24.247Z,10.23
2022-10-01T08:20:52.583Z,11.00
2022-10-01T08:23:20.838Z,9.80
2022-10-01T08:25:49.020Z,10.67
2022-10-01T08:28:18.699Z,9.83
2022-10-01T08:30:46.971Z,10.87
2022-10-01T08:33:15.448Z,9.37
2022-10-01T08:35:44.571Z,9.43
2022-10-01T08:38:13.841Z,9.70
2022-10-01T08:40:47.680Z,10.07
2022-10-01T08:43:30.794Z,10.77
2022-10-01T08:46:04.083Z,9.53
2022-10-01T08:48:56.862Z,11.53
2022-10-01T08:51:31.298Z,11.77
2022-10-01T08:54:09.699Z,10.30
2022-10-01T08:56:44.396Z,11.57
2022-10-01T08:59:27.574Z,10.73
2022-10-01T09:01:56.149Z,11.50
2022-10-01T09:04:25.056Z,13.17
2022-10-01T09:07:02.548Z,18.20
2022-10-01T09:09:46.136Z,10.87
2022-10-01T09:12:28.151Z,12.57
2022-10-01T09:15:08.186Z,17.10
2022-10-01T09:17:53.256Z,13.87
2022-10-01T09:20:27.474Z,10.53
2022-10-01T09:23:08.842Z,15.30
2022-10-01T09:25:39.556Z,13.00
2022-10-01T09:28:15.241Z,12.77
2022-10-01T09:30:51.659Z,17.77
2022-10-01T09:33:21.147Z,19.80
2022-10-01T09:35:54.682Z,16.53
2022-10-01T09:38:27.035Z,12.27
2022-10-01T09:40:56.542Z,11.90
2022-10-01T09:43:27.447Z,11.93
2022-10-01T09:45:57.500Z,13.00
2022-10-01T09:48:31.767Z,11.40
2022-10-01T09:51:04.740Z,11.87
2022-10-01T09:53:37.962Z,12.10
2022-10-01T09:56:13.081Z,13.77
2022-10-01T09:58:48.221Z,12.87
2022-10-01T10:01:40.956Z,13.13
2022-10-01T10:04:10.830Z,11.33
2022-10-01T10:06:40.253Z,10.70
2022-10-01T10:09:17.581Z,10.17
2022-10-01T10:11:46.454Z,12.17
2022-10-01T10:14:20.053Z,13.13
2022-10-01T10:16:49.986Z,12.57
2022-10-01T10:19:23.510Z,15.60
2022-10-01T10:21:53.205Z,15.27
2022-10-01T10:24:26.571Z,12.50
2022-10-01T10:26:57.309Z,11.20
2022-10-01T10:29:30.522Z,12.77
2022-10-01T10:32:04.262Z,13.73
2022-10-01T10:34:34.954Z,12.10
2022-10-01T10:37:06.858Z,12.97
2022-10-01T10:39:37.583Z,13.50
2022-10-01T10:42:07.180Z,13.30
2022-10-01T10:44:39.762Z,13.33
2022-10-01T10:47:13.638Z,12.07
2022-10-01T10:49:47.042Z,9.40
2022-10-01T10:52:25.268Z,12.27
2022-10-01T10:54:54.278Z,11.67
2022-10-01T10:57:27.862Z,12.97
2022-10-01T10:59:57.862Z,18.20
2022-10-01T11:02:30.090Z,12.20
2022-10-01T11:05:03.610Z,12.97
2022-10-01T11:07:33.357Z,14.37
2022-10-01T11:10:21.472Z,13.50
2022-10-01T11:13:09.075Z,13.40
2022-10-01T11:15:51.010Z,11.73
2022-10-01T11:18:34.954Z,12.97
2022-10-01T11:21:18.840Z,14.03
2022-10-01T11:24:04.842Z,13.57
2022-10-01T11:26:42.221Z,12.10
2022-10-01T11:29:21.227Z,13.00
2022-10-01T11:32:02.903Z,12.20
2022-10-01T11:34:50.705Z,14.67
2022-10-01T11:37:34.573Z,13.17
2022-10-01T11:40:15.654Z,15.60
2022-10-01T11:42:46.031Z,12.20
2022-10-01T11:45:21.407Z,14.60
2022-10-01T11:47:53.442Z,12.80
2022-10-01T11:50:26.546Z,13.20
2022-10-01T11:53:01.086Z,13.47
2022-10-01T11:55:52.531Z,14.10
2022-10-01T11:58:47.958Z,13.77
2022-10-01T12:01:20.893Z,14.57
2022-10-01T12:04:01.794Z,15.77
2022-10-01T12:06:35.661Z,13.03
2022-10-01T12:09:09.346Z,13.93
2022-10-01T12:11:45.221Z,14.80
2022-10-01T12:14:17.886Z,12.03
2022-10-01T12:16:51.063Z,12.17
2022-10-01T12:19:25.013Z,11.43
2022-10-01T12:21:58.557Z,10.20
2022-10-01T12:24:30.901Z,10.17
2022-10-01T12:27:10.303Z,10.50
2022-10-01T12:29:49.288Z,8.30
2022-10-01T12:32:27.786Z,6.93
2022-10-01T12:35:04.867Z,6.60
2022-10-01T12:37:47.058Z,6.77
2022-10-01T12:40:28.804Z,5.47
2022-10-01T12:43:36.896Z,6.27
2022-10-01T12:46:16.690Z,7.77
2022-10-01T12:48:54.781Z,4.63
2022-10-01T12:51:38.127Z,7.73
2022-10-01T12:54:30.980Z,4.33
2022-10-01T12:57:07.045Z,8.93
2022-10-01T12:59:52.842Z,5.27
2022-10-01T13:02:45.498Z,7.00
2022-10-01T13:05:25.389Z,8.73
2022-10-01T13:08:09.326Z,5.57
2022-10-01T13:10:52.301Z,6.47
2022-10-01T13:13:24.861Z,10.70
2022-10-01T13:16:00.631Z,7.97
2022-10-01T13:18:41.130Z,12.13
2022-10-01T13:21:17.626Z,6.97
2022-10-01T13:23:51.157Z,8.67
2022-10-01T13:26:27.623Z,6.30
2022-10-01T13:29:17.014Z,5.10
2022-10-01T13:31:56.842Z,7.27
2022-10-01T13:34:40.111Z,7.37
2022-10-01T13:37:16.986Z,6.43
2022-10-01T13:39:45.515Z,9.90
2022-10-01T13:42:22.435Z,9.90
2022-10-01T13:44:56.511Z,20.10
2022-10-01T13:47:26.121Z,8.93
2022-10-01T13:50:01.295Z,9.10
2022-10-01T13:52:29.866Z,10.30
2022-10-01T13:54:59.994Z,10.20
2022-10-01T13:57:35.334Z,7.10
2022-10-01T14:00:22.035Z,7.73
2022-10-01T14:03:03.984Z,7.67
2022-10-01T14:05:37.711Z,6.43
2022-10-01T14:08:15.595Z,7.20
2022-10-01T14:11:10.166Z,6.50
2022-10-01T14:14:09.827Z,8.40
2022-10-01T14:16:40.745Z,7.13
2022-10-01T14:19:09.838Z,8.43
2022-10-01T14:21:51.679Z,8.20
2022-10-01T14:24:29.467Z,8.43
2022-10-01T14:27:05.727Z,7.10
2022-10-01T14:29:48.223Z,10.47
2022-10-01T14:32:30.970Z,7.80
2022-10-01T14:35:19.291Z,7.20
2022-10-01T14:37:48.041Z,6.00
2022-10-01T14:40:19.565Z,6.10
2022-10-01T14:42:58.935Z,6.30
2022-10-01T14:45:29.660Z,5.47
2022-10-01T14:48:05.442Z,6.20
2022-10-01T14:50:35.994Z,6.30
2022-10-01T14:53:04.332Z,6.10
2022-10-01T14:55:32.915Z,5.47
2022-10-01T14:58:01.117Z,5.50
2022-10-01T15:00:33.373Z,5.60
2022-10-01T15:03:12.668Z,4.70
2022-10-01T15:05:40.832Z,5.03
2022-10-01T15:08:13.848Z,4.57
2022-10-01T15:10:46.785Z,6.30
2022-10-01T15:13:21.740Z,6.37
2022-10-01T15:15:52.316Z,5.40
2022-10-01T15:18:21.765Z,6.50
2022-10-01T15:20:57.714Z,7.43
2022-10-01T15:23:27.543Z,6.13
2022-10-01T15:25:57.823Z,5.70
2022-10-01T15:28:32.100Z,5.40
2022-10-01T15:31:03.791Z,7.60
2022-10-01T15:33:34.015Z,7.13
2022-10-01T15:36:05.286Z,7.23
2022-10-01T15:38:34.645Z,9.10
2022-10-01T15:41:30.008Z,5.43
2022-10-01T15:43:53.481Z,6.17
2022-10-01T15:46:32.643Z,6.07
2022-10-01T15:49:18.073Z,9.83
2022-10-01T15:52:12.330Z,32.57
2022-10-01T15:54:43.018Z,28.47
2022-10-01T15:57:16.923Z,16.70
2022-10-01T15:59:45.827Z,10.30
2022-10-01T16:02:21.937Z,16.70
2022-10-01T16:04:52.858Z,35.70
2022-10-01T16:07:26.875Z,20.40
2022-10-01T16:09:58.517Z,13.43
2022-10-01T16:12:28.762Z,8.73
2022-10-01T16:14:59.763Z,17.00
2022-10-01T16:17:32.591Z,16.90
2022-10-01T16:20:03.523Z,11.13
2022-10-01T16:22:33.669Z,11.00
2022-10-01T16:25:03.962Z,14.23
2022-10-01T16:27:36.516Z,12.43
2022-10-01T16:30:19.832Z,14.27
2022-10-01T16:32:49.611Z,10.90
2022-10-01T16:35:20.814Z,14.33
2022-10-01T16:37:50.386Z,11.30
2022-10-01T16:40:19.367Z,12.50
2022-10-01T16:42:49.460Z,15.80
2022-10-01T16:45:20.388Z,20.53
2022-10-01T16:47:50.118Z,18.00
2022-10-01T16:50:21.424Z,16.43
2022-10-01T16:52:52.831Z,17.60
2022-10-01T16:55:24.133Z,15.77
2022-10-01T16:57:53.766Z,20.70
2022-10-01T17:00:23.867Z,19.73
2022-10-01T17:02:53.760Z,20.27
2022-10-01T17:05:25.252Z,17.57
2022-10-01T17:07:54.187Z,21.00
2022-10-01T17:10:23.866Z,18.70
2022-10-01T17:12:52.588Z,26.37
2022-10-01T17:15:26.417Z,23.30
2022-10-01T17:17:56.932Z,19.03
2022-10-01T17:20:28.422Z,28.40
2022-10-01T17:22:58.191Z,23.47
2022-10-01T17:25:30.948Z,24.93
2022-10-01T17:27:59.752Z,20.73
2022-10-01T17:30:29.134Z,21.33
2022-10-01T17:32:59.954Z,22.33
2022-10-01T17:35:29.297Z,21.73
2022-10-01T17:37:58.331Z,26.53
2022-10-01T17:40:26.801Z,19.20
2022-10-01T17:42:54.984Z,20.30
2022-10-01T17:45:23.130Z,19.20
2022-10-01T17:47:51.506Z,25.97
2022-10-01T17:50:21.089Z,20.87
2022-10-01T17:52:49.451Z,20.57
2022-10-01T17:55:19.918Z,22.80
2022-10-01T17:57:48.048Z,22.27
2022-10-01T18:00:16.441Z,19.33
2022-10-01T18:02:44.613Z,21.43
2022-10-01T18:05:14.955Z,17.27
2022-10-01T18:07:45.343Z,18.43
2022-10-01T18:10:14.392Z,15.83
2022-10-01T18:12:42.530Z,15.77
2022-10-01T18:15:12.659Z,15.13
2022-10-01T18:17:43.411Z,14.73
2022-10-01T18:20:20.300Z,14.10
2022-10-01T18:22:50.783Z,11.90
2022-10-01T18:25:19.483Z,14.27
2022-10-01T18:27:50.078Z,13.83
2022-10-01T18:30:20.244Z,10.57
2022-10-01T18:32:56.754Z,11.47
2022-10-01T18:35:31.061Z,13.00
2022-10-01T18:38:06.848Z,12.07
2022-10-01T18:40:37.859Z,14.17
2022-10-01T18:43:10.016Z,13.33
2022-10-01T18:46:04.743Z,13.60
2022-10-01T18:48:50.374Z,13.63
2022-10-01T18:51:30.361Z,13.87
2022-10-01T18:54:24.687Z,15.47
2022-10-01T18:56:58.605Z,18.30
2022-10-01T18:59:58.256Z,16.60
2022-10-01T19:02:41.781Z,17.40
2022-10-01T19:05:53.213Z,19.13
2022-10-01T19:08:39.030Z,15.07
2022-10-01T19:11:18.122Z,16.87
2022-10-01T19:13:53.697Z,20.20
2022-10-01T19:16:40.149Z,18.70
2022-10-01T19:19:22.175Z,15.53
2022-10-01T19:22:00.526Z,17.60
2022-10-01T19:24:48.523Z,18.00
2022-10-01T19:27:33.589Z,17.60
2022-10-01T19:30:08.074Z,19.87
2022-10-01T19:32:42.322Z,19.93
2022-10-01T19:35:19.829Z,23.90
2022-10-01T19:37:52.962Z,22.47
2022-10-01T19:40:27.598Z,17.90
2022-10-01T19:43:06.661Z,13.40
2022-10-01T19:45:45.757Z,10.57
2022-10-01T19:48:20.563Z,8.63
2022-10-01T19:50:54.815Z,9.30
2022-10-01T19:53:27.466Z,7.00
2022-10-01T19:55:59.291Z,9.17
2022-10-01T19:58:30.512Z,12.03
2022-10-01T20:01:01.184Z,8.60
2022-10-01T20:03:38.181Z,10.03
2022-10-01T20:06:11.295Z,10.07
2022-10-01T20:08:45.508Z,9.90
2022-10-01T20:11:19.883Z,8.63
2022-10-01T20:14:08.297Z,12.43
2022-10-01T20:16:41.726Z,9.93
2022-10-01T20:19:19.840Z,12.50
2022-10-01T20:21:59.127Z,11.73
2022-10-01T20:24:47.883Z,10.57
2022-10-01T20:27:31.070Z,8.17
2022-10-01T20:30:06.457Z,9.17
2022-10-01T20:32:42.681Z,10.67
2022-10-01T20:35:19.590Z,8.50
2022-10-01T20:37:58.315Z,13.47
2022-10-01T20:40:29.975Z,8.73
2022-10-01T20:43:04.219Z,12.47
2022-10-01T20:45:35.984Z,9.63
2022-10-01T20:48:12.486Z,11.57
2022-10-01T20:50:44.963Z,10.33
2022-10-01T20:53:19.200Z,11.57
2022-10-01T20:55:51.682Z,9.73
2022-10-01T20:58:24.682Z,12.47
2022-10-01T21:01:05.498Z,12.30
2022-10-01T21:03:38.675Z,9.87
2022-10-01T21:06:15.109Z,14.80
2022-10-01T21:08:50.274Z,12.40
2022-10-01T21:11:27.271Z,10.00
2022-10-01T21:14:01.766Z,12.33
2022-10-01T21:16:45.160Z,15.70
2022-10-01T21:19:24.361Z,10.97
2022-10-01T21:22:01.556Z,18.83
2022-10-01T21:24:45.251Z,23.23
2022-10-01T21:27:32.066Z,27.87
2022-10-01T21:30:08.674Z,33.90
2022-10-01T21:33:07.806Z,22.57
2022-10-01T21:35:46.390Z,17.73
2022-10-01T21:38:28.342Z,20.13
2022-10-01T21:41:29.160Z,13.53
2022-10-01T21:44:26.990Z,21.70
2022-10-01T21:47:03.235Z,12.60
2022-10-01T21:49:43.551Z,13.40
2022-10-01T21:52:32.538Z,16.10
2022-10-01T21:55:20.669Z,19.07
2022-10-01T21:58:06.749Z,14.40
2022-10-01T22:00:34.989Z,18.60
2022-10-01T22:03:23.457Z,11.70
2022-10-01T22:06:01.093Z,13.50
2022-10-01T22:08:46.429Z,10.87
2022-10-01T22:11:19.011Z,11.20
2022-10-01T22:13:52.265Z,11.33
2022-10-01T22:16:22.908Z,10.03
2022-10-01T22:18:54.077Z,13.00
2022-10-01T22:21:28.986Z,13.33
2022-10-01T22:24:04.236Z,10.33
2022-10-01T22:26:35.571Z,9.73
2022-10-01T22:29:08.272Z,13.57
2022-10-01T22:31:37.691Z,7.83
2022-10-01T22:34:10.530Z,10.10
2022-10-01T22:36:45.125Z,8.60
2022-10-01T22:39:21.582Z,8.30
2022-10-01T22:41:53.989Z,6.10
2022-10-01T22:44:24.274Z,10.40
2022-10-01T22:47:07.582Z,9.10
2022-10-01T22:49:49.136Z,10.30
2022-10-01T22:52:33.206Z,3.97
2022-10-01T22:55:15.401Z,6.47
2022-10-01T22:57:59.134Z,5.97
2022-10-01T23:00:28.109Z,4.93
2022-10-01T23:03:08.326Z,5.07
2022-10-01T23:05:47.839Z,3.63
2022-10-01T23:08:25.322Z,4.00
2022-10-01T23:11:02.892Z,3.53
2022-10-01T23:13:45.159Z,4.47
2022-10-01T23:16:21.790Z,3.17
2022-10-01T23:19:01.659Z,2.73
2022-10-01T23:21:39.606Z,2.67
2022-10-01T23:24:21.630Z,4.00
2022-10-01T23:27:01.372Z,3.40
2022-10-01T23:29:53.263Z,3.10
2022-10-01T23:32:37.700Z,2.60
2022-10-01T23:35:14.172Z,4.77
2022-10-01T23:38:01.933Z,3.53
2022-10-01T23:40:35.698Z,3.87
2022-10-01T23:43:10.729Z,3.30
2022-10-01T23:45:44.082Z,2.73
2022-10-01T23:48:17.210Z,4.40
2022-10-01T23:50:54.327Z,6.37
2022-10-01T23:53:26.609Z,4.23
2022-10-01T23:56:21.474Z,3.40
2022-10-01T23:58:55.171Z,4.20
